createdAt,value
2023-05-25T00:01:07.672Z,14.40
2023-05-25T00:03:41.136Z,14.41
2023-05-25T00:06:15.747Z,14.41
2023-05-25T00:08:49.619Z,14.41
2023-05-25T00:11:23.570Z,14.40
2023-05-25T00:13:56.935Z,14.38
2023-05-25T00:16:29.857Z,14.33
2023-05-25T00:19:04.750Z,14.32
2023-05-25T00:21:38.593Z,14.26
2023-05-25T00:24:11.742Z,14.24
2023-05-25T00:26:44.673Z,14.18
2023-05-25T00:29:19.459Z,14.13
2023-05-25T00:31:52.413Z,14.10
2023-05-25T00:34:25.781Z,14.07
2023-05-25T00:36:58.661Z,14.04
2023-05-25T00:39:33.345Z,14.06
2023-05-25T00:42:07.954Z,14.03
2023-05-25T00:44:40.836Z,14.00
2023-05-25T00:47:14.361Z,13.94
2023-05-25T00:49:47.233Z,13.84
2023-05-25T00:52:20.258Z,13.83
2023-05-25T00:54:56.310Z,13.82
2023-05-25T00:57:34.468Z,13.83
2023-05-25T01:00:11.629Z,13.80
2023-05-25T01:02:46.605Z,13.79
2023-05-25T01:05:21.946Z,13.74
2023-05-25T01:07:57.578Z,13.72
2023-05-25T01:10:35.127Z,13.71
2023-05-25T01:13:10.786Z,13.69
2023-05-25T01:15:44.166Z,13.69
2023-05-25T01:18:18.420Z,13.70
2023-05-25T01:21:13.291Z,13.68
2023-05-25T01:23:54.385Z,13.54
2023-05-25T01:26:31.460Z,13.54
2023-05-25T01:29:07.945Z,13.55
2023-05-25T01:31:42.310Z,13.53
2023-05-25T01:34:17.526Z,13.55
2023-05-25T01:36:50.569Z,13.55
2023-05-25T01:39:25.950Z,13.49
2023-05-25T01:41:58.861Z,13.51
2023-05-25T01:44:32.726Z,13.51
2023-05-25T01:47:13.088Z,13.54
2023-05-25T01:49:53.761Z,13.56
2023-05-25T01:52:30.508Z,13.58
2023-05-25T01:55:07.405Z,13.60
2023-05-25T01:57:44.738Z,13.59
2023-05-25T02:00:21.562Z,13.52
2023-05-25T02:02:56.153Z,13.50
2023-05-25T02:05:29.475Z,13.51
2023-05-25T02:08:02.298Z,13.55
2023-05-25T02:10:37.337Z,13.51
2023-05-25T02:13:11.128Z,13.44
2023-05-25T02:15:44.590Z,13.37
2023-05-25T02:18:18.465Z,13.37
2023-05-25T02:20:51.620Z,13.37
2023-05-25T02:23:24.405Z,13.42
2023-05-25T02:25:57.344Z,13.40
2023-05-25T02:28:30.580Z,13.34
2023-05-25T02:31:03.605Z,13.35
2023-05-25T02:33:36.584Z,13.36
2023-05-25T02:36:10.316Z,13.31
2023-05-25T02:38:43.576Z,13.26
2023-05-25T02:41:16.999Z,13.22
2023-05-25T02:43:50.926Z,13.25
2023-05-25T02:46:24.028Z,13.24
2023-05-25T02:48:56.905Z,13.21
2023-05-25T02:51:30.960Z,13.23
2023-05-25T02:54:04.505Z,13.24
2023-05-25T02:56:37.622Z,13.27
2023-05-25T02:59:11.311Z,13.29
2023-05-25T03:01:44.169Z,13.28
2023-05-25T03:04:18.416Z,13.30
2023-05-25T03:06:51.291Z,13.30
2023-05-25T03:09:25.095Z,13.30
2023-05-25T03:11:58.233Z,13.33
2023-05-25T03:14:31.429Z,13.33
2023-05-25T03:17:10.182Z,13.29
2023-05-25T03:19:44.273Z,13.26
2023-05-25T03:22:17.565Z,13.21
2023-05-25T03:24:51.706Z,13.17
2023-05-25T03:27:24.577Z,13.21
2023-05-25T03:29:57.677Z,13.20
2023-05-25T03:32:30.902Z,13.19
2023-05-25T03:35:04.659Z,13.22
2023-05-25T03:37:38.138Z,13.20
2023-05-25T03:40:12.994Z,13.20
2023-05-25T03:46:34.942Z,13.26
2023-05-25T03:49:14.059Z,13.27
2023-05-25T03:54:25.684Z,13.33
2023-05-25T03:56:59.920Z,13.41
2023-05-25T03:59:34.434Z,13.43
2023-05-25T04:02:07.929Z,13.48
2023-05-25T04:04:42.123Z,13.55
2023-05-25T04:07:15.014Z,13.59
2023-05-25T04:09:47.953Z,13.63
2023-05-25T04:12:22.654Z,13.71
2023-05-25T04:14:56.802Z,13.76
2023-05-25T04:17:31.049Z,13.85
2023-05-25T04:20:04.538Z,13.94
2023-05-25T04:22:40.560Z,14.00
2023-05-25T04:25:14.598Z,14.05
2023-05-25T04:27:49.545Z,14.08
2023-05-25T04:30:32.020Z,14.14
2023-05-25T04:33:30.077Z,14.20
2023-05-25T04:36:11.255Z,14.27
2023-05-25T04:38:48.862Z,14.36
2023-05-25T04:41:22.509Z,14.39
2023-05-25T04:44:08.949Z,14.43
2023-05-25T04:46:46.950Z,14.47
2023-05-25T04:49:40.203Z,14.45
2023-05-25T04:52:15.614Z,14.50
2023-05-25T04:54:49.413Z,14.55
2023-05-25T04:57:28.637Z,14.55
2023-05-25T05:00:03.446Z,14.57
2023-05-25T05:02:37.750Z,14.63
2023-05-25T05:05:11.710Z,14.63
2023-05-25T05:07:46.196Z,14.64
2023-05-25T05:10:22.027Z,14.67
2023-05-25T05:12:59.756Z,14.66
2023-05-25T05:15:32.792Z,14.69
2023-05-25T05:18:07.195Z,14.74
2023-05-25T05:20:41.244Z,14.85
2023-05-25T05:23:15.419Z,14.95
2023-05-25T05:25:48.249Z,15.03
2023-05-25T05:28:21.670Z,15.11
2023-05-25T05:30:54.599Z,15.17
2023-05-25T05:33:28.576Z,15.32
2023-05-25T05:36:02.922Z,15.36
2023-05-25T05:38:38.760Z,15.38
2023-05-25T05:41:14.665Z,15.31
2023-05-25T05:43:52.198Z,15.34
2023-05-25T05:46:25.025Z,15.43
2023-05-25T05:49:12.103Z,15.41
2023-05-25T05:51:45.999Z,15.47
2023-05-25T05:54:23.840Z,15.56
2023-05-25T05:56:57.421Z,15.64
2023-05-25T05:59:32.521Z,15.78
2023-05-25T06:02:07.752Z,15.86
2023-05-25T06:04:41.534Z,15.96
2023-05-25T06:07:16.458Z,15.96
2023-05-25T06:09:49.312Z,16.08
2023-05-25T06:12:22.134Z,16.21
2023-05-25T06:15:13.894Z,16.21
2023-05-25T06:17:47.240Z,16.27
2023-05-25T06:20:21.290Z,16.45
2023-05-25T06:22:55.000Z,16.62
2023-05-25T06:25:45.457Z,16.86
2023-05-25T06:28:18.727Z,17.05
2023-05-25T06:31:03.976Z,17.23
2023-05-25T06:33:59.544Z,17.33
2023-05-25T06:36:46.947Z,17.37
2023-05-25T06:39:47.695Z,17.37
2023-05-25T06:42:24.147Z,17.37
2023-05-25T06:45:03.150Z,17.39
2023-05-25T06:47:38.950Z,17.49
2023-05-25T06:50:13.862Z,17.61
2023-05-25T06:52:46.944Z,17.63
2023-05-25T06:55:21.258Z,17.61
2023-05-25T06:57:56.897Z,17.62
2023-05-25T07:00:29.745Z,17.67
2023-05-25T07:03:02.902Z,17.58
2023-05-25T07:05:36.120Z,17.54
2023-05-25T07:08:11.193Z,17.49
2023-05-25T07:10:44.995Z,17.40
2023-05-25T07:13:19.598Z,17.39
2023-05-25T07:15:53.173Z,17.45
2023-05-25T07:18:28.148Z,17.52
2023-05-25T07:21:01.009Z,17.55
2023-05-25T07:23:35.368Z,17.59
2023-05-25T07:26:08.363Z,17.61
2023-05-25T07:29:05.510Z,17.58
2023-05-25T07:31:38.338Z,17.65
2023-05-25T07:34:11.202Z,17.75
2023-05-25T07:36:44.631Z,17.77
2023-05-25T07:39:18.415Z,17.81
2023-05-25T07:41:51.237Z,17.91
2023-05-25T07:44:25.076Z,17.95
2023-05-25T07:46:58.017Z,18.00
2023-05-25T07:49:36.625Z,18.02
2023-05-25T07:52:11.320Z,18.07
2023-05-25T07:54:48.913Z,18.15
2023-05-25T07:57:21.883Z,18.13
2023-05-25T07:59:57.361Z,18.22
2023-05-25T08:02:30.358Z,18.34
2023-05-25T08:05:06.686Z,18.47
2023-05-25T08:07:40.747Z,18.48
2023-05-25T08:10:16.686Z,18.59
2023-05-25T08:12:51.225Z,18.74
2023-05-25T08:15:26.603Z,18.90
2023-05-25T08:17:59.677Z,19.05
2023-05-25T08:20:33.228Z,19.20
2023-05-25T08:23:14.281Z,19.30
2023-05-25T08:25:47.228Z,19.46
2023-05-25T08:28:22.532Z,19.55
2023-05-25T08:31:01.143Z,19.66
2023-05-25T08:34:08.292Z,19.78
2023-05-25T08:36:42.035Z,19.85
2023-05-25T08:39:16.039Z,20.03
2023-05-25T08:41:54.160Z,20.20
2023-05-25T08:44:29.588Z,20.25
2023-05-25T08:47:08.536Z,20.28
2023-05-25T08:49:47.827Z,20.36
2023-05-25T08:52:30.615Z,20.47
2023-05-25T08:55:18.001Z,20.52
2023-05-25T08:58:05.670Z,20.55
2023-05-25T09:00:46.271Z,20.54
2023-05-25T09:03:25.994Z,20.62
2023-05-25T09:07:08.751Z,20.77
2023-05-25T09:10:09.117Z,20.82
2023-05-25T09:12:43.788Z,20.85
2023-05-25T09:15:21.215Z,20.92
2023-05-25T09:17:59.132Z,20.98
2023-05-25T09:20:43.654Z,21.05
2023-05-25T09:23:24.333Z,21.04
2023-05-25T09:25:57.855Z,21.11
2023-05-25T09:28:38.610Z,21.17
2023-05-25T09:31:14.654Z,21.18
2023-05-25T09:34:00.884Z,21.20
2023-05-25T09:36:37.102Z,21.31
2023-05-25T09:39:14.490Z,21.45
2023-05-25T09:41:52.602Z,21.58
2023-05-25T09:44:31.032Z,21.71
2023-05-25T09:47:09.042Z,21.75
2023-05-25T09:49:48.079Z,21.74
2023-05-25T09:52:23.828Z,21.81
2023-05-25T09:55:10.672Z,21.88
2023-05-25T09:58:03.892Z,21.98
2023-05-25T10:00:36.720Z,22.03
2023-05-25T10:03:15.631Z,22.06
2023-05-25T10:06:02.926Z,22.07
2023-05-25T10:08:37.178Z,22.01
2023-05-25T10:11:18.529Z,22.08
2023-05-25T10:14:04.526Z,22.19
2023-05-25T10:16:40.564Z,22.30
2023-05-25T10:19:33.011Z,22.37
2023-05-25T10:22:43.642Z,22.44
2023-05-25T10:25:28.031Z,22.29
2023-05-25T10:28:09.820Z,22.23
2023-05-25T10:30:47.281Z,22.24
2023-05-25T10:33:52.520Z,22.26
2023-05-25T10:36:51.578Z,22.31
2023-05-25T10:39:38.836Z,22.42
2023-05-25T10:42:13.395Z,22.55
2023-05-25T10:44:51.594Z,22.61
2023-05-25T10:47:24.837Z,22.57
2023-05-25T10:50:07.382Z,22.57
2023-05-25T10:52:40.978Z,22.61
2023-05-25T10:55:14.049Z,22.73
2023-05-25T10:58:12.140Z,22.90
2023-05-25T11:01:01.736Z,22.99
2023-05-25T11:03:57.509Z,22.99
2023-05-25T11:07:03.177Z,23.13
2023-05-25T11:09:43.693Z,23.32
2023-05-25T11:12:28.006Z,23.51
2023-05-25T11:15:16.837Z,23.57
2023-05-25T11:18:03.186Z,23.62
2023-05-25T11:20:41.933Z,23.62
2023-05-25T11:23:29.479Z,23.58
2023-05-25T11:26:08.221Z,23.58
2023-05-25T11:29:04.765Z,23.63
2023-05-25T11:31:43.667Z,23.69
2023-05-25T11:34:18.927Z,23.83
2023-05-25T11:37:25.209Z,23.98
2023-05-25T11:40:21.985Z,23.97
2023-05-25T11:42:57.220Z,24.03
2023-05-25T11:45:31.760Z,24.08
2023-05-25T11:48:10.652Z,24.09
2023-05-25T11:50:45.927Z,24.03
2023-05-25T11:53:39.315Z,24.02
2023-05-25T11:56:30.728Z,23.93
2023-05-25T11:59:28.230Z,23.85
2023-05-25T12:02:06.284Z,23.85
2023-05-25T12:04:41.298Z,23.93
2023-05-25T12:07:16.548Z,24.00
2023-05-25T12:09:56.406Z,24.00
2023-05-25T12:12:34.258Z,24.04
2023-05-25T12:15:12.001Z,24.11
2023-05-25T12:17:57.765Z,24.11
2023-05-25T12:20:31.399Z,24.09
2023-05-25T12:23:09.416Z,24.18
2023-05-25T12:25:50.237Z,24.19
2023-05-25T12:28:26.578Z,24.12
2023-05-25T12:31:30.285Z,24.20
2023-05-25T12:34:15.915Z,24.25
2023-05-25T12:36:52.395Z,24.15
2023-05-25T12:39:40.146Z,24.00
2023-05-25T12:42:27.417Z,23.81
2023-05-25T12:45:33.138Z,23.81
2023-05-25T12:48:09.981Z,23.88
2023-05-25T12:51:21.084Z,23.97
2023-05-25T12:53:57.952Z,24.01
2023-05-25T12:56:31.723Z,24.09
2023-05-25T12:59:21.795Z,24.02
2023-05-25T13:01:54.654Z,23.94
2023-05-25T13:04:28.234Z,23.89
2023-05-25T13:07:03.758Z,23.92
2023-05-25T13:09:36.628Z,23.99
2023-05-25T13:12:11.384Z,23.92
2023-05-25T13:14:45.372Z,23.94
2023-05-25T13:17:23.543Z,24.00
2023-05-25T13:20:01.512Z,24.01
2023-05-25T13:22:39.260Z,24.06
2023-05-25T13:25:19.244Z,24.11
2023-05-25T13:28:03.445Z,24.14
2023-05-25T13:30:48.682Z,24.13
2023-05-25T13:33:36.580Z,24.11
2023-05-25T13:36:12.608Z,24.11
2023-05-25T13:38:47.291Z,24.12
2023-05-25T13:41:51.501Z,24.10
2023-05-25T13:44:27.879Z,24.03
2023-05-25T13:47:08.925Z,24.02
2023-05-25T13:49:52.209Z,23.99
2023-05-25T13:52:29.999Z,23.98
2023-05-25T13:55:11.726Z,23.98
2023-05-25T13:57:54.729Z,23.95
2023-05-25T14:00:30.110Z,23.97
2023-05-25T14:03:04.020Z,24.02
2023-05-25T14:06:04.037Z,24.07
2023-05-25T14:08:37.712Z,24.08
2023-05-25T14:11:27.929Z,23.99
2023-05-25T14:14:11.464Z,23.92
2023-05-25T14:16:49.580Z,23.88
2023-05-25T14:19:22.816Z,23.82
2023-05-25T14:22:13.362Z,23.79
2023-05-25T14:24:55.265Z,23.77
2023-05-25T14:27:33.093Z,23.66
2023-05-25T14:30:20.686Z,23.61
2023-05-25T14:32:57.176Z,23.65
2023-05-25T14:35:45.373Z,23.79
2023-05-25T14:38:21.933Z,23.90
2023-05-25T14:41:11.745Z,23.97
2023-05-25T14:43:50.797Z,24.03
2023-05-25T14:46:26.323Z,24.00
2023-05-25T14:49:00.276Z,23.90
2023-05-25T14:51:38.337Z,23.96
2023-05-25T14:54:13.810Z,24.01
2023-05-25T14:56:52.629Z,24.10
2023-05-25T14:59:37.087Z,24.19
2023-05-25T15:02:11.712Z,24.19
2023-05-25T15:04:52.790Z,24.14
2023-05-25T15:07:28.595Z,24.14
2023-05-25T15:10:04.118Z,24.13
2023-05-25T15:12:41.965Z,24.11
2023-05-25T15:15:20.595Z,24.06
2023-05-25T15:18:00.799Z,23.96
2023-05-25T15:20:37.422Z,23.86
2023-05-25T15:23:13.028Z,23.80
2023-05-25T15:25:50.894Z,23.78
2023-05-25T15:28:27.150Z,23.71
2023-05-25T15:31:04.609Z,23.69
2023-05-25T15:33:56.326Z,23.67
2023-05-25T15:36:40.660Z,23.60
2023-05-25T15:39:17.265Z,23.50
2023-05-25T15:41:56.737Z,23.45
2023-05-25T15:44:38.459Z,23.43
2023-05-25T15:47:22.612Z,23.43
2023-05-25T15:49:58.775Z,23.41
2023-05-25T15:52:38.446Z,23.45
2023-05-25T15:55:20.371Z,23.35
2023-05-25T15:57:59.159Z,23.31
2023-05-25T16:00:38.301Z,23.25
2023-05-25T16:03:14.746Z,23.28
2023-05-25T16:05:51.619Z,23.28
2023-05-25T16:08:35.084Z,23.23
2023-05-25T16:12:01.219Z,23.03
2023-05-25T16:14:36.130Z,22.93
2023-05-25T16:17:12.990Z,22.95
2023-05-25T16:19:47.701Z,23.09
2023-05-25T16:22:24.608Z,23.24
2023-05-25T16:24:57.453Z,23.33
2023-05-25T16:27:33.544Z,23.32
2023-05-25T16:30:31.261Z,23.25
2023-05-25T16:33:04.271Z,23.17
2023-05-25T16:35:37.202Z,23.15
2023-05-25T16:38:10.836Z,23.17
2023-05-25T16:40:46.850Z,23.17
2023-05-25T16:43:22.242Z,23.16
2023-05-25T16:45:55.675Z,23.09
2023-05-25T16:48:34.770Z,23.10
2023-05-25T16:51:15.450Z,23.13
2023-05-25T16:53:48.284Z,23.04
2023-05-25T16:56:22.730Z,22.90
2023-05-25T16:58:58.212Z,22.83
2023-05-25T17:01:35.264Z,22.81
2023-05-25T17:04:10.737Z,22.83
2023-05-25T17:06:45.432Z,22.79
2023-05-25T17:09:18.595Z,22.81
2023-05-25T17:11:53.671Z,22.82
2023-05-25T17:14:33.240Z,22.79
2023-05-25T17:17:10.742Z,22.70
2023-05-25T17:19:43.912Z,22.64
2023-05-25T17:22:17.166Z,22.56
2023-05-25T17:24:51.172Z,22.55
2023-05-25T17:27:25.524Z,22.49
2023-05-25T17:29:58.306Z,22.48
2023-05-25T17:32:31.306Z,22.41
2023-05-25T17:35:04.935Z,22.37
2023-05-25T17:37:37.710Z,22.33
2023-05-25T17:40:12.753Z,22.23
2023-05-25T17:42:49.573Z,22.22
2023-05-25T17:45:24.346Z,22.22
2023-05-25T17:48:05.296Z,22.11
2023-05-25T17:50:39.092Z,21.94
2023-05-25T17:53:42.760Z,21.84
2023-05-25T17:56:15.661Z,21.74
2023-05-25T17:58:48.529Z,21.65
2023-05-25T18:01:21.513Z,21.65
2023-05-25T18:03:54.760Z,21.59
2023-05-25T18:06:29.393Z,21.50
2023-05-25T18:09:02.714Z,21.41
2023-05-25T18:11:36.888Z,21.36
2023-05-25T18:14:12.386Z,21.34
2023-05-25T18:16:45.365Z,21.26
2023-05-25T18:19:20.537Z,21.17
2023-05-25T18:21:53.348Z,21.06
2023-05-25T18:24:26.472Z,20.93
2023-05-25T18:27:04.094Z,20.82
2023-05-25T18:29:40.376Z,20.70
2023-05-25T18:32:13.264Z,20.61
2023-05-25T18:34:48.540Z,20.54
2023-05-25T18:37:23.481Z,20.51
2023-05-25T18:39:56.357Z,20.52
2023-05-25T18:42:30.566Z,20.52
2023-05-25T18:45:04.713Z,20.46
2023-05-25T18:47:37.550Z,20.37
2023-05-25T18:50:12.609Z,20.25
2023-05-25T18:52:58.193Z,20.08
2023-05-25T18:55:31.308Z,19.93
2023-05-25T18:58:06.111Z,19.82
2023-05-25T19:00:42.740Z,19.80
2023-05-25T19:03:15.751Z,19.80
2023-05-25T19:05:58.398Z,19.75
2023-05-25T19:08:32.036Z,19.71
2023-05-25T19:11:05.972Z,19.67
2023-05-25T19:13:47.230Z,19.61
2023-05-25T19:16:20.224Z,19.58
2023-05-25T19:18:56.844Z,19.55
2023-05-25T19:21:29.844Z,19.48
2023-05-25T19:24:02.689Z,19.39
2023-05-25T19:26:36.853Z,19.31
2023-05-25T19:29:09.836Z,19.17
2023-05-25T19:32:00.938Z,19.06
2023-05-25T19:34:36.060Z,18.97
2023-05-25T19:37:11.384Z,18.94
2023-05-25T19:39:48.050Z,18.79
2023-05-25T19:42:20.919Z,18.71
2023-05-25T19:45:10.210Z,18.65
2023-05-25T19:47:48.922Z,18.62
2023-05-25T19:50:33.461Z,18.59
2023-05-25T19:53:07.765Z,18.52
2023-05-25T19:55:44.032Z,18.46
2023-05-25T19:58:26.413Z,18.38
2023-05-25T20:01:05.700Z,18.26
2023-05-25T20:03:38.599Z,18.19
2023-05-25T20:06:12.062Z,18.15
2023-05-25T20:08:45.675Z,18.10
2023-05-25T20:11:19.673Z,18.06
2023-05-25T20:14:24.371Z,18.04
2023-05-25T20:17:02.381Z,18.06
2023-05-25T20:19:44.398Z,18.01
2023-05-25T20:22:23.437Z,17.96
2023-05-25T20:25:03.693Z,17.94
2023-05-25T20:27:58.622Z,17.82
2023-05-25T20:30:36.366Z,17.74
2023-05-25T20:33:19.392Z,17.74
2023-05-25T20:35:56.213Z,17.79
2023-05-25T20:38:29.050Z,17.81
2023-05-25T20:41:07.216Z,17.80
2023-05-25T20:43:51.377Z,17.79
2023-05-25T20:46:28.519Z,17.71
2023-05-25T20:49:28.264Z,17.62
2023-05-25T20:52:07.885Z,17.52
2023-05-25T20:54:45.001Z,17.49
2023-05-25T20:57:25.215Z,17.44
2023-05-25T21:00:03.699Z,17.44
2023-05-25T21:02:36.816Z,17.46
2023-05-25T21:05:27.125Z,17.42
2023-05-25T21:08:04.151Z,17.29
2023-05-25T21:10:52.222Z,17.22
2023-05-25T21:13:33.893Z,17.10
2023-05-25T21:16:18.405Z,16.98
2023-05-25T21:18:51.481Z,16.94
2023-05-25T21:21:28.201Z,16.92
2023-05-25T21:24:17.218Z,16.90
2023-05-25T21:26:53.331Z,16.89
2023-05-25T21:29:28.711Z,16.84
2023-05-25T21:32:01.712Z,16.78
2023-05-25T21:34:42.302Z,16.74
2023-05-25T21:37:18.759Z,16.71
2023-05-25T21:39:51.561Z,16.70
2023-05-25T21:42:26.280Z,16.67
2023-05-25T21:45:24.816Z,16.51
2023-05-25T21:48:02.149Z,16.46
2023-05-25T21:50:36.400Z,16.47
2023-05-25T21:53:09.967Z,16.41
2023-05-25T21:55:43.086Z,16.37
2023-05-25T21:58:18.823Z,16.29
2023-05-25T22:01:02.853Z,16.19
2023-05-25T22:03:36.556Z,16.08
2023-05-25T22:06:10.297Z,16.06
2023-05-25T22:08:43.050Z,16.07
2023-05-25T22:11:15.865Z,16.05
2023-05-25T22:13:48.708Z,16.00
2023-05-25T22:16:21.610Z,15.92
2023-05-25T22:18:59.944Z,15.91
2023-05-25T22:21:35.012Z,15.86
2023-05-25T22:24:09.493Z,15.90
2023-05-25T22:26:42.362Z,15.89
2023-05-25T22:29:15.141Z,15.83
2023-05-25T22:31:47.955Z,15.77
2023-05-25T22:34:23.024Z,15.77
2023-05-25T22:36:58.037Z,15.73
2023-05-25T22:39:30.871Z,15.72
2023-05-25T22:42:04.033Z,15.70
2023-05-25T22:44:40.468Z,15.61
2023-05-25T22:47:14.640Z,15.54
2023-05-25T22:49:50.454Z,15.52
2023-05-25T22:52:23.939Z,15.46
2023-05-25T22:54:56.690Z,15.39
2023-05-25T22:57:29.532Z,15.35
2023-05-25T23:00:02.524Z,15.31
2023-05-25T23:02:38.527Z,15.26
2023-05-25T23:05:12.402Z,15.19
2023-05-25T23:07:47.082Z,15.08
2023-05-25T23:10:21.163Z,15.01
2023-05-25T23:12:54.784Z,14.95
2023-05-25T23:15:29.348Z,14.90
2023-05-25T23:18:04.347Z,14.82
2023-05-25T23:20:40.735Z,14.74
2023-05-25T23:23:14.913Z,14.64
2023-05-25T23:25:48.018Z,14.62
2023-05-25T23:28:24.199Z,14.59
2023-05-25T23:30:57.330Z,14.58
2023-05-25T23:33:31.152Z,14.46
2023-05-25T23:36:04.453Z,14.34
2023-05-25T23:38:37.342Z,14.24
2023-05-25T23:41:10.690Z,14.17
2023-05-25T23:43:43.463Z,14.08
2023-05-25T23:46:17.491Z,14.07
2023-05-25T23:48:55.725Z,14.07
2023-05-25T23:51:29.168Z,14.01
2023-05-25T23:54:03.301Z,13.98
2023-05-25T23:56:37.984Z,14.01
2023-05-25T23:59:35.207Z,13.92
